sensor_id;sensor_type;location;lat;lon;timestamp;temperature;humidity
39677;DHT22;27789;50.840;4.386;2023-03-08T00:01:17;4.50;99.90
39677;DHT22;27789;50.840;4.386;2023-03-08T00:03:42;4.60;99.90
39677;DHT22;27789;50.840;4.386;2023-03-08T00:06:10;4.60;99.90
39677;DHT22;27789;50.840;4.386;2023-03-08T00:08:36;4.60;99.90
39677;DHT22;27789;50.840;4.386;2023-03-08T00:11:06;4.60;99.90
39677;DHT22;27789;50.840;4.386;2023-03-08T00:13:32;4.60;99.90
39677;DHT22;27789;50.840;4.386;2023-03-08T00:15:58;4.60;99.90
39677;DHT22;27789;50.840;4.386;2023-03-08T00:18:24;4.60;99.90
39677;DHT22;27789;50.840;4.386;2023-03-08T00:20:57;4.60;99.90
39677;DHT22;27789;50.840;4.386;2023-03-08T00:23:22;4.60;99.90
39677;DHT22;27789;50.840;4.386;2023-03-08T00:25:51;5.60;99.90
39677;DHT22;27789;50.840;4.386;2023-03-08T00:28:17;4.50;99.90
39677;DHT22;27789;50.840;4.386;2023-03-08T00:30:42;4.50;99.90
39677;DHT22;27789;50.840;4.386;2023-03-08T00:33:08;4.50;99.90
39677;DHT22;27789;50.840;4.386;2023-03-08T00:35:33;4.50;99.90
39677;DHT22;27789;50.840;4.386;2023-03-08T00:37:59;4.50;99.90
39677;DHT22;27789;50.840;4.386;2023-03-08T00:40:24;4.50;99.90
39677;DHT22;27789;50.840;4.386;2023-03-08T00:42:50;4.60;99.90
39677;DHT22;27789;50.840;4.386;2023-03-08T00:45:15;4.50;99.90
39677;DHT22;27789;50.840;4.386;2023-03-08T00:47:41;4.50;99.90
39677;DHT22;27789;50.840;4.386;2023-03-08T00:50:06;4.60;99.90
39677;DHT22;27789;50.840;4.386;2023-03-08T00:52:32;4.50;99.90
39677;DHT22;27789;50.840;4.386;2023-03-08T00:54:57;4.50;99.90
39677;DHT22;27789;50.840;4.386;2023-03-08T00:57:23;4.50;99.90
39677;DHT22;27789;50.840;4.386;2023-03-08T00:59:48;4.50;99.90
39677;DHT22;27789;50.840;4.386;2023-03-08T01:02:14;4.50;99.90
39677;DHT22;27789;50.840;4.386;2023-03-08T01:04:39;5.50;99.90
39677;DHT22;27789;50.840;4.386;2023-03-08T01:07:05;4.50;99.90
39677;DHT22;27789;50.840;4.386;2023-03-08T01:09:30;4.50;99.90
39677;DHT22;27789;50.840;4.386;2023-03-08T01:11:56;4.50;99.90
39677;DHT22;27789;50.840;4.386;2023-03-08T01:14:21;4.50;99.90
39677;DHT22;27789;50.840;4.386;2023-03-08T01:16:47;4.40;99.90
39677;DHT22;27789;50.840;4.386;2023-03-08T01:19:12;4.40;99.90
39677;DHT22;27789;50.840;4.386;2023-03-08T01:21:38;4.40;99.90
39677;DHT22;27789;50.840;4.386;2023-03-08T01:24:03;4.30;99.90
39677;DHT22;27789;50.840;4.386;2023-03-08T01:26:29;4.30;99.90
39677;DHT22;27789;50.840;4.386;2023-03-08T01:28:55;4.20;99.90
39677;DHT22;27789;50.840;4.386;2023-03-08T01:31:22;4.20;99.90
39677;DHT22;27789;50.840;4.386;2023-03-08T01:33:47;4.20;99.90
39677;DHT22;27789;50.840;4.386;2023-03-08T01:36:14;4.10;99.90
39677;DHT22;27789;50.840;4.386;2023-03-08T01:38:39;4.00;99.90
39677;DHT22;27789;50.840;4.386;2023-03-08T01:41:05;4.00;99.90
39677;DHT22;27789;50.840;4.386;2023-03-08T01:43:35;3.90;99.90
39677;DHT22;27789;50.840;4.386;2023-03-08T01:48:30;4.00;99.90
39677;DHT22;27789;50.840;4.386;2023-03-08T01:50:57;4.10;99.90
39677;DHT22;27789;50.840;4.386;2023-03-08T01:53:23;4.10;99.90
39677;DHT22;27789;50.840;4.386;2023-03-08T01:55:49;4.10;99.90
39677;DHT22;27789;50.840;4.386;2023-03-08T01:58:14;4.20;99.90
39677;DHT22;27789;50.840;4.386;2023-03-08T02:00:39;4.20;99.90
39677;DHT22;27789;50.840;4.386;2023-03-08T02:03:09;4.20;99.90
39677;DHT22;27789;50.840;4.386;2023-03-08T02:05:35;4.20;99.90
39677;DHT22;27789;50.840;4.386;2023-03-08T02:08:01;4.20;99.90
39677;DHT22;27789;50.840;4.386;2023-03-08T02:10:27;4.20;99.90
39677;DHT22;27789;50.840;4.386;2023-03-08T02:12:52;4.20;99.90
39677;DHT22;27789;50.840;4.386;2023-03-08T02:15:19;4.10;99.90
39677;DHT22;27789;50.840;4.386;2023-03-08T02:17:44;4.20;99.90
39677;DHT22;27789;50.840;4.386;2023-03-08T02:22:42;4.20;99.90
39677;DHT22;27789;50.840;4.386;2023-03-08T02:25:14;4.20;99.90
39677;DHT22;27789;50.840;4.386;2023-03-08T02:27:42;4.20;99.90
39677;DHT22;27789;50.840;4.386;2023-03-08T02:30:09;4.20;99.90
39677;DHT22;27789;50.840;4.386;2023-03-08T02:32:35;4.20;99.90
39677;DHT22;27789;50.840;4.386;2023-03-08T02:35:01;4.10;99.90
39677;DHT22;27789;50.840;4.386;2023-03-08T02:37:26;4.10;99.90
39677;DHT22;27789;50.840;4.386;2023-03-08T02:39:52;4.10;99.90
39677;DHT22;27789;50.840;4.386;2023-03-08T02:42:17;4.10;99.90
39677;DHT22;27789;50.840;4.386;2023-03-08T02:44:43;4.10;99.90
39677;DHT22;27789;50.840;4.386;2023-03-08T02:47:08;4.00;99.90
39677;DHT22;27789;50.840;4.386;2023-03-08T02:49:34;4.00;99.90
39677;DHT22;27789;50.840;4.386;2023-03-08T02:51:59;3.90;99.90
39677;DHT22;27789;50.840;4.386;2023-03-08T02:54:25;3.90;99.90
39677;DHT22;27789;50.840;4.386;2023-03-08T02:56:50;3.90;99.90
39677;DHT22;27789;50.840;4.386;2023-03-08T02:59:16;3.90;99.90
39677;DHT22;27789;50.840;4.386;2023-03-08T03:01:41;3.90;99.90
39677;DHT22;27789;50.840;4.386;2023-03-08T03:04:07;3.90;99.90
39677;DHT22;27789;50.840;4.386;2023-03-08T03:06:32;3.90;99.90
39677;DHT22;27789;50.840;4.386;2023-03-08T03:08:58;3.90;99.90
39677;DHT22;27789;50.840;4.386;2023-03-08T03:11:23;3.90;99.90
39677;DHT22;27789;50.840;4.386;2023-03-08T03:13:53;3.80;99.90
39677;DHT22;27789;50.840;4.386;2023-03-08T03:16:18;3.80;99.90
39677;DHT22;27789;50.840;4.386;2023-03-08T03:18:44;3.80;99.90
39677;DHT22;27789;50.840;4.386;2023-03-08T03:21:11;3.80;99.90
39677;DHT22;27789;50.840;4.386;2023-03-08T03:23:37;3.80;99.90
39677;DHT22;27789;50.840;4.386;2023-03-08T03:28:38;3.70;99.90
39677;DHT22;27789;50.840;4.386;2023-03-08T03:31:08;3.70;99.90
39677;DHT22;27789;50.840;4.386;2023-03-08T03:33:34;3.60;99.90
39677;DHT22;27789;50.840;4.386;2023-03-08T03:36:00;3.60;99.90
39677;DHT22;27789;50.840;4.386;2023-03-08T03:38:25;3.60;99.90
39677;DHT22;27789;50.840;4.386;2023-03-08T03:40:58;3.60;99.90
39677;DHT22;27789;50.840;4.386;2023-03-08T03:43:23;3.50;99.90
39677;DHT22;27789;50.840;4.386;2023-03-08T03:45:56;3.50;99.90
39677;DHT22;27789;50.840;4.386;2023-03-08T03:48:21;3.50;99.90
39677;DHT22;27789;50.840;4.386;2023-03-08T03:51:20;3.50;99.90
39677;DHT22;27789;50.840;4.386;2023-03-08T03:53:38;3.50;99.90
39677;DHT22;27789;50.840;4.386;2023-03-08T03:56:05;3.50;99.90
39677;DHT22;27789;50.840;4.386;2023-03-08T03:58:31;3.50;99.90
39677;DHT22;27789;50.840;4.386;2023-03-08T04:00:57;3.40;99.90
39677;DHT22;27789;50.840;4.386;2023-03-08T04:03:22;3.40;99.90
39677;DHT22;27789;50.840;4.386;2023-03-08T04:05:48;3.30;99.90
39677;DHT22;27789;50.840;4.386;2023-03-08T04:08:13;3.30;99.90
39677;DHT22;27789;50.840;4.386;2023-03-08T04:10:39;3.30;99.90
39677;DHT22;27789;50.840;4.386;2023-03-08T04:13:04;3.30;99.90
39677;DHT22;27789;50.840;4.386;2023-03-08T04:15:30;3.30;99.90
39677;DHT22;27789;50.840;4.386;2023-03-08T04:17:55;3.30;99.90
39677;DHT22;27789;50.840;4.386;2023-03-08T04:20:21;3.30;99.90
39677;DHT22;27789;50.840;4.386;2023-03-08T04:22:47;3.30;99.90
39677;DHT22;27789;50.840;4.386;2023-03-08T04:25:13;3.30;99.90
39677;DHT22;27789;50.840;4.386;2023-03-08T04:27:38;3.30;99.90
39677;DHT22;27789;50.840;4.386;2023-03-08T04:30:04;3.30;99.90
39677;DHT22;27789;50.840;4.386;2023-03-08T04:32:32;3.30;99.90
39677;DHT22;27789;50.840;4.386;2023-03-08T04:34:58;3.30;99.90
39677;DHT22;27789;50.840;4.386;2023-03-08T04:37:23;3.30;99.90
39677;DHT22;27789;50.840;4.386;2023-03-08T04:39:49;3.30;99.90
39677;DHT22;27789;50.840;4.386;2023-03-08T04:42:14;3.20;99.90
39677;DHT22;27789;50.840;4.386;2023-03-08T04:44:40;3.20;99.90
39677;DHT22;27789;50.840;4.386;2023-03-08T04:47:05;3.20;99.90
39677;DHT22;27789;50.840;4.386;2023-03-08T04:49:31;3.20;99.90
39677;DHT22;27789;50.840;4.386;2023-03-08T04:51:56;3.20;99.90
39677;DHT22;27789;50.840;4.386;2023-03-08T04:54:22;3.20;99.90
39677;DHT22;27789;50.840;4.386;2023-03-08T04:56:47;3.20;99.90
39677;DHT22;27789;50.840;4.386;2023-03-08T04:59:13;3.20;99.90
39677;DHT22;27789;50.840;4.386;2023-03-08T05:01:38;3.20;99.90
39677;DHT22;27789;50.840;4.386;2023-03-08T05:04:04;3.20;99.90
39677;DHT22;27789;50.840;4.386;2023-03-08T05:06:29;3.20;99.90
39677;DHT22;27789;50.840;4.386;2023-03-08T05:08:55;3.10;99.90
39677;DHT22;27789;50.840;4.386;2023-03-08T05:11:24;3.10;99.90
39677;DHT22;27789;50.840;4.386;2023-03-08T05:13:52;3.10;99.90
39677;DHT22;27789;50.840;4.386;2023-03-08T05:16:17;3.10;99.90
39677;DHT22;27789;50.840;4.386;2023-03-08T05:18:43;3.10;99.90
39677;DHT22;27789;50.840;4.386;2023-03-08T05:21:09;3.10;99.90
39677;DHT22;27789;50.840;4.386;2023-03-08T05:23:35;3.10;99.90
39677;DHT22;27789;50.840;4.386;2023-03-08T05:26:01;3.10;99.90
39677;DHT22;27789;50.840;4.386;2023-03-08T05:28:28;3.10;99.90
39677;DHT22;27789;50.840;4.386;2023-03-08T05:33:25;3.10;99.90
39677;DHT22;27789;50.840;4.386;2023-03-08T05:35:51;3.10;99.90
39677;DHT22;27789;50.840;4.386;2023-03-08T05:38:18;3.10;99.90
39677;DHT22;27789;50.840;4.386;2023-03-08T05:40:44;3.00;99.90
39677;DHT22;27789;50.840;4.386;2023-03-08T05:43:09;3.00;99.90
39677;DHT22;27789;50.840;4.386;2023-03-08T05:45:35;3.00;99.90
39677;DHT22;27789;50.840;4.386;2023-03-08T05:48:00;3.00;99.90
39677;DHT22;27789;50.840;4.386;2023-03-08T05:50:26;3.00;99.90
39677;DHT22;27789;50.840;4.386;2023-03-08T05:52:51;3.00;99.90
39677;DHT22;27789;50.840;4.386;2023-03-08T05:55:17;3.10;99.90
39677;DHT22;27789;50.840;4.386;2023-03-08T05:57:42;3.10;99.90
39677;DHT22;27789;50.840;4.386;2023-03-08T06:00:08;3.10;99.90
39677;DHT22;27789;50.840;4.386;2023-03-08T06:02:33;3.10;99.90
39677;DHT22;27789;50.840;4.386;2023-03-08T06:04:59;3.10;99.90
39677;DHT22;27789;50.840;4.386;2023-03-08T06:07:24;3.10;99.90
39677;DHT22;27789;50.840;4.386;2023-03-08T06:09:50;3.10;99.90
39677;DHT22;27789;50.840;4.386;2023-03-08T06:12:16;3.20;99.90
39677;DHT22;27789;50.840;4.386;2023-03-08T06:14:41;3.20;99.90
39677;DHT22;27789;50.840;4.386;2023-03-08T06:17:06;3.10;99.90
39677;DHT22;27789;50.840;4.386;2023-03-08T06:19:32;3.20;99.90
39677;DHT22;27789;50.840;4.386;2023-03-08T06:21:58;3.20;99.90
39677;DHT22;27789;50.840;4.386;2023-03-08T06:24:23;3.10;99.90
39677;DHT22;27789;50.840;4.386;2023-03-08T06:26:49;3.20;99.90
39677;DHT22;27789;50.840;4.386;2023-03-08T06:29:14;3.20;99.90
39677;DHT22;27789;50.840;4.386;2023-03-08T06:31:40;3.20;99.90
39677;DHT22;27789;50.840;4.386;2023-03-08T06:34:05;3.10;99.90
39677;DHT22;27789;50.840;4.386;2023-03-08T06:36:31;3.10;99.90
39677;DHT22;27789;50.840;4.386;2023-03-08T06:38:56;3.10;99.90
39677;DHT22;27789;50.840;4.386;2023-03-08T06:41:23;3.10;99.90
39677;DHT22;27789;50.840;4.386;2023-03-08T06:43:49;3.10;99.90
39677;DHT22;27789;50.840;4.386;2023-03-08T06:46:15;3.10;99.90
39677;DHT22;27789;50.840;4.386;2023-03-08T06:48:41;3.10;99.90
39677;DHT22;27789;50.840;4.386;2023-03-08T06:51:07;3.10;99.90
39677;DHT22;27789;50.840;4.386;2023-03-08T06:53:32;3.00;99.90
39677;DHT22;27789;50.840;4.386;2023-03-08T06:56:00;3.00;99.90
39677;DHT22;27789;50.840;4.386;2023-03-08T06:58:27;3.10;99.90
39677;DHT22;27789;50.840;4.386;2023-03-08T07:00:53;3.10;99.90
39677;DHT22;27789;50.840;4.386;2023-03-08T07:03:19;3.10;99.90
39677;DHT22;27789;50.840;4.386;2023-03-08T07:05:44;3.10;99.90
39677;DHT22;27789;50.840;4.386;2023-03-08T07:08:10;3.20;99.90
39677;DHT22;27789;50.840;4.386;2023-03-08T07:10:35;3.20;99.90
39677;DHT22;27789;50.840;4.386;2023-03-08T07:13:01;3.20;99.90
39677;DHT22;27789;50.840;4.386;2023-03-08T07:15:26;3.10;99.90
39677;DHT22;27789;50.840;4.386;2023-03-08T07:17:55;3.10;99.90
39677;DHT22;27789;50.840;4.386;2023-03-08T07:20:21;3.20;99.90
39677;DHT22;27789;50.840;4.386;2023-03-08T07:22:47;3.20;99.90
39677;DHT22;27789;50.840;4.386;2023-03-08T07:25:13;3.20;99.90
39677;DHT22;27789;50.840;4.386;2023-03-08T07:27:39;3.20;99.90
39677;DHT22;27789;50.840;4.386;2023-03-08T07:30:04;3.20;99.90
39677;DHT22;27789;50.840;4.386;2023-03-08T07:32:30;3.20;99.90
39677;DHT22;27789;50.840;4.386;2023-03-08T07:34:56;3.20;99.90
39677;DHT22;27789;50.840;4.386;2023-03-08T07:37:21;3.20;99.90
39677;DHT22;27789;50.840;4.386;2023-03-08T07:39:47;3.30;99.90
39677;DHT22;27789;50.840;4.386;2023-03-08T07:42:12;3.30;99.90
39677;DHT22;27789;50.840;4.386;2023-03-08T07:44:38;3.30;99.90
39677;DHT22;27789;50.840;4.386;2023-03-08T07:47:04;3.30;99.90
39677;DHT22;27789;50.840;4.386;2023-03-08T07:49:30;3.30;99.90
39677;DHT22;27789;50.840;4.386;2023-03-08T07:51:55;3.30;99.90
39677;DHT22;27789;50.840;4.386;2023-03-08T07:54:21;3.30;99.90
39677;DHT22;27789;50.840;4.386;2023-03-08T07:56:46;3.40;99.90
39677;DHT22;27789;50.840;4.386;2023-03-08T07:59:12;3.30;99.90
39677;DHT22;27789;50.840;4.386;2023-03-08T08:01:37;3.30;99.90
39677;DHT22;27789;50.840;4.386;2023-03-08T08:04:03;3.30;99.90
39677;DHT22;27789;50.840;4.386;2023-03-08T08:06:28;3.30;99.90
39677;DHT22;27789;50.840;4.386;2023-03-08T08:08:54;3.30;99.90
39677;DHT22;27789;50.840;4.386;2023-03-08T08:11:20;3.40;99.90
39677;DHT22;27789;50.840;4.386;2023-03-08T08:13:45;3.40;99.90
39677;DHT22;27789;50.840;4.386;2023-03-08T08:16:11;3.40;99.90
39677;DHT22;27789;50.840;4.386;2023-03-08T08:18:37;3.40;99.90
39677;DHT22;27789;50.840;4.386;2023-03-08T08:21:04;3.40;99.90
39677;DHT22;27789;50.840;4.386;2023-03-08T08:23:30;3.40;99.90
39677;DHT22;27789;50.840;4.386;2023-03-08T08:25:56;3.50;99.90
39677;DHT22;27789;50.840;4.386;2023-03-08T08:28:22;3.60;99.90
39677;DHT22;27789;50.840;4.386;2023-03-08T08:33:24;3.50;99.90
39677;DHT22;27789;50.840;4.386;2023-03-08T08:35:50;3.60;99.90
39677;DHT22;27789;50.840;4.386;2023-03-08T08:38:15;3.60;99.90
39677;DHT22;27789;50.840;4.386;2023-03-08T08:40:41;3.60;99.90
39677;DHT22;27789;50.840;4.386;2023-03-08T08:43:06;3.70;99.90
39677;DHT22;27789;50.840;4.386;2023-03-08T08:45:32;3.70;99.90
39677;DHT22;27789;50.840;4.386;2023-03-08T08:47:57;3.70;99.90
39677;DHT22;27789;50.840;4.386;2023-03-08T08:50:23;3.80;99.90
39677;DHT22;27789;50.840;4.386;2023-03-08T08:52:51;3.80;99.90
39677;DHT22;27789;50.840;4.386;2023-03-08T08:55:17;3.70;99.90
39677;DHT22;27789;50.840;4.386;2023-03-08T08:57:42;3.70;99.90
39677;DHT22;27789;50.840;4.386;2023-03-08T09:00:08;3.80;99.90
39677;DHT22;27789;50.840;4.386;2023-03-08T09:02:34;3.90;99.90
39677;DHT22;27789;50.840;4.386;2023-03-08T09:05:00;3.90;99.90
39677;DHT22;27789;50.840;4.386;2023-03-08T09:07:25;4.00;99.90
39677;DHT22;27789;50.840;4.386;2023-03-08T09:09:52;4.10;99.90
39677;DHT22;27789;50.840;4.386;2023-03-08T09:12:21;4.10;99.90
39677;DHT22;27789;50.840;4.386;2023-03-08T09:14:46;4.20;99.90
39677;DHT22;27789;50.840;4.386;2023-03-08T09:17:12;4.20;99.90
39677;DHT22;27789;50.840;4.386;2023-03-08T09:19:37;6.80;99.90
39677;DHT22;27789;50.840;4.386;2023-03-08T09:22:03;4.30;99.90
39677;DHT22;27789;50.840;4.386;2023-03-08T09:24:28;4.30;99.90
39677;DHT22;27789;50.840;4.386;2023-03-08T09:26:53;4.30;99.90
39677;DHT22;27789;50.840;4.386;2023-03-08T09:29:22;4.30;99.90
39677;DHT22;27789;50.840;4.386;2023-03-08T09:31:47;4.30;99.90
39677;DHT22;27789;50.840;4.386;2023-03-08T09:34:13;4.80;99.90
39677;DHT22;27789;50.840;4.386;2023-03-08T09:36:40;4.40;99.90
39677;DHT22;27789;50.840;4.386;2023-03-08T09:39:06;4.40;99.90
39677;DHT22;27789;50.840;4.386;2023-03-08T09:47:12;6.20;99.90
39677;DHT22;27789;50.840;4.386;2023-03-08T09:49:40;6.30;99.90
39677;DHT22;27789;50.840;4.386;2023-03-08T09:54:32;6.20;99.90
39677;DHT22;27789;50.840;4.386;2023-03-08T09:56:59;6.10;99.90
39677;DHT22;27789;50.840;4.386;2023-03-08T10:07:15;5.50;99.90
39677;DHT22;27789;50.840;4.386;2023-03-08T10:13:05;5.20;99.90
39677;DHT22;27789;50.840;4.386;2023-03-08T10:15:09;5.10;99.90
39677;DHT22;27789;50.840;4.386;2023-03-08T10:17:42;5.10;99.90
39677;DHT22;27789;50.840;4.386;2023-03-08T10:20:16;5.10;99.90
39677;DHT22;27789;50.840;4.386;2023-03-08T10:22:49;5.10;99.90
39677;DHT22;27789;50.840;4.386;2023-03-08T10:25:25;5.20;99.90
39677;DHT22;27789;50.840;4.386;2023-03-08T10:27:54;5.10;99.90
39677;DHT22;27789;50.840;4.386;2023-03-08T10:30:21;5.00;99.90
39677;DHT22;27789;50.840;4.386;2023-03-08T10:32:49;5.00;99.90
39677;DHT22;27789;50.840;4.386;2023-03-08T10:35:15;5.00;99.90
39677;DHT22;27789;50.840;4.386;2023-03-08T10:37:41;4.90;99.90
39677;DHT22;27789;50.840;4.386;2023-03-08T10:40:16;4.90;99.90
39677;DHT22;27789;50.840;4.386;2023-03-08T10:45:21;4.80;99.90
39677;DHT22;27789;50.840;4.386;2023-03-08T10:47:53;4.80;99.90
39677;DHT22;27789;50.840;4.386;2023-03-08T10:50:21;4.80;99.90
39677;DHT22;27789;50.840;4.386;2023-03-08T10:52:47;4.90;99.90
39677;DHT22;27789;50.840;4.386;2023-03-08T10:55:17;4.90;99.90
39677;DHT22;27789;50.840;4.386;2023-03-08T11:03:00;4.90;99.90
39677;DHT22;27789;50.840;4.386;2023-03-08T11:05:25;4.90;99.90
39677;DHT22;27789;50.840;4.386;2023-03-08T11:07:52;5.00;99.90
39677;DHT22;27789;50.840;4.386;2023-03-08T11:10:18;5.00;99.90
39677;DHT22;27789;50.840;4.386;2023-03-08T11:12:44;5.10;99.90
39677;DHT22;27789;50.840;4.386;2023-03-08T11:15:14;5.20;99.90
39677;DHT22;27789;50.840;4.386;2023-03-08T11:17:43;5.20;99.90
39677;DHT22;27789;50.840;4.386;2023-03-08T11:20:15;5.20;99.90
39677;DHT22;27789;50.840;4.386;2023-03-08T11:42:48;5.20;99.90
39677;DHT22;27789;50.840;4.386;2023-03-08T11:45:20;5.20;99.90
39677;DHT22;27789;50.840;4.386;2023-03-08T11:52:58;5.10;99.90
39677;DHT22;27789;50.840;4.386;2023-03-08T11:57:52;5.10;99.90
39677;DHT22;27789;50.840;4.386;2023-03-08T12:00:23;5.10;99.90
39677;DHT22;27789;50.840;4.386;2023-03-08T12:02:49;5.10;99.90
39677;DHT22;27789;50.840;4.386;2023-03-08T12:07:54;5.20;99.90
39677;DHT22;27789;50.840;4.386;2023-03-08T12:10:22;5.10;99.90
39677;DHT22;27789;50.840;4.386;2023-03-08T12:18:05;5.20;99.90
39677;DHT22;27789;50.840;4.386;2023-03-08T12:20:36;5.30;99.90
39677;DHT22;27789;50.840;4.386;2023-03-08T12:23:09;5.30;99.90
39677;DHT22;27789;50.840;4.386;2023-03-08T12:25:37;5.20;99.90
39677;DHT22;27789;50.840;4.386;2023-03-08T12:28:05;5.20;99.90
39677;DHT22;27789;50.840;4.386;2023-03-08T12:33:05;5.20;99.90
39677;DHT22;27789;50.840;4.386;2023-03-08T12:35:34;5.30;99.90
39677;DHT22;27789;50.840;4.386;2023-03-08T12:38:04;5.30;99.90
39677;DHT22;27789;50.840;4.386;2023-03-08T12:40:38;5.30;99.90
39677;DHT22;27789;50.840;4.386;2023-03-08T12:43:08;5.30;99.90
39677;DHT22;27789;50.840;4.386;2023-03-08T12:45:34;5.40;99.90
39677;DHT22;27789;50.840;4.386;2023-03-08T12:48:06;5.40;99.90
39677;DHT22;27789;50.840;4.386;2023-03-08T12:50:35;5.40;99.90
39677;DHT22;27789;50.840;4.386;2023-03-08T12:53:13;5.40;99.90
39677;DHT22;27789;50.840;4.386;2023-03-08T12:55:39;5.40;99.90
39677;DHT22;27789;50.840;4.386;2023-03-08T12:58:04;5.40;99.90
39677;DHT22;27789;50.840;4.386;2023-03-08T13:00:31;5.40;99.90
39677;DHT22;27789;50.840;4.386;2023-03-08T13:03:40;5.40;99.90
39677;DHT22;27789;50.840;4.386;2023-03-08T13:05:46;5.40;99.90
39677;DHT22;27789;50.840;4.386;2023-03-08T13:13:21;5.40;99.90
39677;DHT22;27789;50.840;4.386;2023-03-08T13:15:48;5.50;99.90
39677;DHT22;27789;50.840;4.386;2023-03-08T13:18:15;5.50;99.90
39677;DHT22;27789;50.840;4.386;2023-03-08T13:23:26;5.50;99.90
39677;DHT22;27789;50.840;4.386;2023-03-08T13:28:41;5.60;99.90
39677;DHT22;27789;50.840;4.386;2023-03-08T13:33:51;5.50;99.90
39677;DHT22;27789;50.840;4.386;2023-03-08T13:38:42;5.50;99.90
39677;DHT22;27789;50.840;4.386;2023-03-08T13:41:08;5.60;99.90
39677;DHT22;27789;50.840;4.386;2023-03-08T13:43:33;5.60;99.90
39677;DHT22;27789;50.840;4.386;2023-03-08T13:46:00;5.60;99.90
39677;DHT22;27789;50.840;4.386;2023-03-08T13:48:27;5.60;99.90
39677;DHT22;27789;50.840;4.386;2023-03-08T13:50:55;5.60;99.90
39677;DHT22;27789;50.840;4.386;2023-03-08T13:53:22;5.60;99.90
39677;DHT22;27789;50.840;4.386;2023-03-08T13:55:50;5.60;99.90
39677;DHT22;27789;50.840;4.386;2023-03-08T14:01:00;5.70;99.90
39677;DHT22;27789;50.840;4.386;2023-03-08T14:03:26;5.70;99.90
39677;DHT22;27789;50.840;4.386;2023-03-08T14:05:52;5.90;99.90
39677;DHT22;27789;50.840;4.386;2023-03-08T14:08:18;5.80;99.90
39677;DHT22;27789;50.840;4.386;2023-03-08T14:10:45;5.80;99.90
39677;DHT22;27789;50.840;4.386;2023-03-08T14:13:18;5.80;99.90
39677;DHT22;27789;50.840;4.386;2023-03-08T14:15:51;5.80;99.90
39677;DHT22;27789;50.840;4.386;2023-03-08T14:18:21;5.80;99.90
39677;DHT22;27789;50.840;4.386;2023-03-08T14:23:23;5.80;99.90
39677;DHT22;27789;50.840;4.386;2023-03-08T14:25:54;5.90;99.90
39677;DHT22;27789;50.840;4.386;2023-03-08T14:30:56;5.80;99.90
39677;DHT22;27789;50.840;4.386;2023-03-08T14:33:22;5.70;99.90
39677;DHT22;27789;50.840;4.386;2023-03-08T14:35:51;5.70;99.90
39677;DHT22;27789;50.840;4.386;2023-03-08T14:38:20;5.70;99.90
39677;DHT22;27789;50.840;4.386;2023-03-08T14:40:47;5.80;99.90
39677;DHT22;27789;50.840;4.386;2023-03-08T14:43:16;5.90;99.90
39677;DHT22;27789;50.840;4.386;2023-03-08T14:48:23;5.80;99.90
39677;DHT22;27789;50.840;4.386;2023-03-08T14:50:50;5.80;99.90
39677;DHT22;27789;50.840;4.386;2023-03-08T14:53:22;5.80;99.90
39677;DHT22;27789;50.840;4.386;2023-03-08T14:55:48;5.80;99.90
39677;DHT22;27789;50.840;4.386;2023-03-08T14:58:13;5.70;99.90
39677;DHT22;27789;50.840;4.386;2023-03-08T15:03:15;5.60;99.90
39677;DHT22;27789;50.840;4.386;2023-03-08T15:05:41;5.70;99.90
39677;DHT22;27789;50.840;4.386;2023-03-08T15:08:08;5.60;99.90
39677;DHT22;27789;50.840;4.386;2023-03-08T15:10:35;5.60;99.90
39677;DHT22;27789;50.840;4.386;2023-03-08T15:13:05;5.60;99.90
39677;DHT22;27789;50.840;4.386;2023-03-08T15:15:32;5.50;99.90
39677;DHT22;27789;50.840;4.386;2023-03-08T15:17:57;5.60;99.90
39677;DHT22;27789;50.840;4.386;2023-03-08T15:20:23;5.70;99.90
39677;DHT22;27789;50.840;4.386;2023-03-08T15:22:50;5.60;99.90
39677;DHT22;27789;50.840;4.386;2023-03-08T15:25:27;5.60;99.90
39677;DHT22;27789;50.840;4.386;2023-03-08T15:27:53;5.50;99.90
39677;DHT22;27789;50.840;4.386;2023-03-08T15:30:20;5.60;99.90
39677;DHT22;27789;50.840;4.386;2023-03-08T15:32:46;5.50;99.90
39677;DHT22;27789;50.840;4.386;2023-03-08T15:35:12;5.50;99.90
39677;DHT22;27789;50.840;4.386;2023-03-08T15:37:37;5.40;99.90
39677;DHT22;27789;50.840;4.386;2023-03-08T15:40:03;5.40;99.90
39677;DHT22;27789;50.840;4.386;2023-03-08T15:42:31;5.40;99.90
39677;DHT22;27789;50.840;4.386;2023-03-08T15:44:57;5.40;99.90
39677;DHT22;27789;50.840;4.386;2023-03-08T15:47:23;5.60;99.90
39677;DHT22;27789;50.840;4.386;2023-03-08T15:49:49;5.50;99.90
39677;DHT22;27789;50.840;4.386;2023-03-08T15:52:14;5.30;99.90
39677;DHT22;27789;50.840;4.386;2023-03-08T15:54:40;5.30;99.90
39677;DHT22;27789;50.840;4.386;2023-03-08T15:57:09;5.40;99.90
39677;DHT22;27789;50.840;4.386;2023-03-08T15:59:34;5.40;99.90
39677;DHT22;27789;50.840;4.386;2023-03-08T16:02:01;5.50;99.90
39677;DHT22;27789;50.840;4.386;2023-03-08T16:04:26;5.60;99.90
39677;DHT22;27789;50.840;4.386;2023-03-08T16:06:52;5.60;99.90
39677;DHT22;27789;50.840;4.386;2023-03-08T16:09:17;5.70;99.90
39677;DHT22;27789;50.840;4.386;2023-03-08T16:11:43;5.70;99.90
39677;DHT22;27789;50.840;4.386;2023-03-08T16:14:08;5.70;99.90
39677;DHT22;27789;50.840;4.386;2023-03-08T16:16:34;5.70;99.90
39677;DHT22;27789;50.840;4.386;2023-03-08T16:18:59;5.70;99.90
39677;DHT22;27789;50.840;4.386;2023-03-08T16:21:25;5.70;99.90
39677;DHT22;27789;50.840;4.386;2023-03-08T16:23:51;5.70;99.90
39677;DHT22;27789;50.840;4.386;2023-03-08T16:26:16;5.80;99.90
39677;DHT22;27789;50.840;4.386;2023-03-08T16:28:42;5.70;99.90
39677;DHT22;27789;50.840;4.386;2023-03-08T16:31:08;5.70;99.90
39677;DHT22;27789;50.840;4.386;2023-03-08T16:33:34;5.70;99.90
39677;DHT22;27789;50.840;4.386;2023-03-08T16:36:00;5.70;99.90
39677;DHT22;27789;50.840;4.386;2023-03-08T16:38:26;5.70;99.90
39677;DHT22;27789;50.840;4.386;2023-03-08T16:40:51;5.70;99.90
39677;DHT22;27789;50.840;4.386;2023-03-08T16:43:17;5.60;99.90
39677;DHT22;27789;50.840;4.386;2023-03-08T16:45:51;5.60;99.90
39677;DHT22;27789;50.840;4.386;2023-03-08T16:48:17;5.60;99.90
39677;DHT22;27789;50.840;4.386;2023-03-08T16:50:48;5.50;99.90
39677;DHT22;27789;50.840;4.386;2023-03-08T16:53:13;5.50;99.90
39677;DHT22;27789;50.840;4.386;2023-03-08T16:55:39;5.40;99.90
39677;DHT22;27789;50.840;4.386;2023-03-08T16:58:04;5.40;99.90
39677;DHT22;27789;50.840;4.386;2023-03-08T17:00:30;5.40;99.90
39677;DHT22;27789;50.840;4.386;2023-03-08T17:02:55;5.30;99.90
39677;DHT22;27789;50.840;4.386;2023-03-08T17:05:21;5.30;99.90
39677;DHT22;27789;50.840;4.386;2023-03-08T17:07:46;5.30;99.90
39677;DHT22;27789;50.840;4.386;2023-03-08T17:10:12;5.30;99.90
39677;DHT22;27789;50.840;4.386;2023-03-08T17:12:37;5.40;99.90
39677;DHT22;27789;50.840;4.386;2023-03-08T17:15:03;5.30;99.90
39677;DHT22;27789;50.840;4.386;2023-03-08T17:17:29;6.00;99.90
39677;DHT22;27789;50.840;4.386;2023-03-08T17:19:54;5.30;99.90
39677;DHT22;27789;50.840;4.386;2023-03-08T17:22:20;5.30;99.90
39677;DHT22;27789;50.840;4.386;2023-03-08T17:24:45;5.30;99.90
39677;DHT22;27789;50.840;4.386;2023-03-08T17:27:11;5.20;99.90